Time;durP1;ratioP1;P1;durP2;ratioP2;P2;SDS_P1;SDS_P2;PMS_P1;PMS_P2;Temp;Humidity;BMP_temperature;BMP_pressure;BME280_temperature;BME280_humidity;BME280_pressure;Samples;Min_cycle;Max_cycle;Signal;HPM_P1;HPM_P2
2020/12/08 00:00:20;;;;;;;4.68;1.40;;;;;;;6.50;76.08;98983.06;4916101;29;20107;-73
2020/12/08 00:02:48;;;;;;;3.75;1.63;;;;;;;6.48;76.12;98972.91;4915663;29;20561;-73
2020/12/08 00:05:15;;;;;;;3.85;1.60;;;;;;;6.47;76.01;98973.75;4916035;29;20044;-73
2020/12/08 00:07:44;;;;;;;3.25;1.70;;;;;;;6.45;76.18;98972.91;4917326;29;20125;-74
2020/12/08 00:10:12;;;;;;;4.00;1.70;;;;;;;6.46;76.63;98983.88;4917252;29;20577;-73
2020/12/08 00:12:40;;;;;;;4.07;2.13;;;;;;;6.41;76.67;98985.53;4917362;29;20063;-73
2020/12/08 00:15:09;;;;;;;3.63;1.75;;;;;;;6.40;76.82;98972.03;4916347;29;20480;-74
2020/12/08 00:17:37;;;;;;;5.50;1.90;;;;;;;6.46;76.69;98979.66;4917190;29;20071;-74
2020/12/08 00:20:07;;;;;;;3.60;1.90;;;;;;;6.10;76.81;98911.06;4900525;29;20048;-73
2020/12/08 00:22:35;;;;;;;3.47;1.80;;;;;;;6.30;76.91;98946.63;4917163;29;20056;-74
2020/12/08 00:25:04;;;;;;;4.93;2.28;;;;;;;6.48;76.90;98972.91;4915895;29;20518;-75
2020/12/08 00:27:32;;;;;;;6.13;2.30;;;;;;;6.50;77.04;98981.34;4917069;29;20044;-75
2020/12/08 00:30:00;;;;;;;12.02;3.63;;;;;;;6.40;77.03;98959.38;4916153;29;20289;-76
2020/12/08 00:32:29;;;;;;;8.30;2.92;;;;;;;6.44;76.79;98970.34;4915852;29;20498;-76
2020/12/08 00:34:57;;;;;;;7.40;2.35;;;;;;;6.53;76.49;98976.28;4917165;29;20040;-73
2020/12/08 00:37:26;;;;;;;6.18;2.22;;;;;;;6.55;76.98;98974.59;4917224;29;20553;-73
2020/12/08 00:39:54;;;;;;;4.45;1.83;;;;;;;6.58;76.49;98981.38;4915907;29;20044;-73
2020/12/08 00:42:22;;;;;;;3.85;1.90;;;;;;;6.48;76.58;98977.97;4916931;29;20048;-75
2020/12/08 00:44:50;;;;;;;3.97;1.85;;;;;;;6.44;76.33;98975.41;4915770;29;20083;-73
2020/12/08 00:47:19;;;;;;;3.28;1.77;;;;;;;6.42;76.80;98972.88;4915827;29;20048;-74
2020/12/08 00:49:48;;;;;;;3.75;1.60;;;;;;;6.44;76.68;98971.19;4915761;29;20044;-73
2020/12/08 00:52:16;;;;;;;3.33;1.70;;;;;;;6.50;76.61;98981.34;4947453;29;20040;-73
2020/12/08 00:54:44;;;;;;;3.95;1.70;;;;;;;6.50;76.62;98981.34;4915713;29;20112;-74
2020/12/08 00:57:20;;;;;;;3.50;1.35;;;;;;;6.02;77.12;98900.09;4916032;29;20063;-73
2020/12/08 00:59:48;;;;;;;3.70;1.52;;;;;;;6.49;76.99;98984.75;4915763;29;20399;-74
2020/12/08 01:02:16;;;;;;;3.67;1.70;;;;;;;6.49;76.86;98982.19;4916876;29;20109;-73
2020/12/08 01:04:45;;;;;;;3.60;1.70;;;;;;;6.48;76.92;98983.03;4915506;29;20051;-73
2020/12/08 01:07:16;;;;;;;3.35;1.77;;;;;;;6.21;76.72;98929.72;4916058;29;20048;-73
2020/12/08 01:09:44;;;;;;;3.72;1.90;;;;;;;6.50;76.69;98978.81;4900042;29;20067;-73
2020/12/08 01:12:14;;;;;;;3.70;1.73;;;;;;;6.31;76.63;98949.16;4900026;29;20076;-73
2020/12/08 01:14:42;;;;;;;3.08;1.58;;;;;;;6.38;76.52;98957.66;4918487;29;20518;-74
2020/12/08 01:17:11;;;;;;;3.53;1.70;;;;;;;5.72;76.37;98854.31;4919024;29;20048;-73
2020/12/08 01:19:39;;;;;;;3.60;1.83;;;;;;;6.43;76.57;98969.50;4918710;29;20114;-73
2020/12/08 01:22:13;;;;;;;2.95;1.55;;;;;;;6.41;77.00;98976.25;4919263;29;20060;-73
2020/12/08 01:24:42;;;;;;;2.50;1.45;;;;;;;6.26;76.84;98947.47;4919590;29;20092;-73
2020/12/08 01:27:11;;;;;;;3.47;1.70;;;;;;;6.46;76.38;98982.19;4903309;29;20066;-74
2020/12/08 01:29:39;;;;;;;3.33;1.77;;;;;;;6.43;76.87;98968.66;4934704;29;20410;-73
2020/12/08 01:32:08;;;;;;;4.15;1.75;;;;;;;6.40;76.46;98959.38;4918634;29;20099;-73
2020/12/08 01:34:38;;;;;;;3.47;1.70;;;;;;;6.26;76.71;98929.75;4918669;29;20490;-74
2020/12/08 01:37:09;;;;;;;3.88;1.60;;;;;;;6.52;76.53;98969.56;4918698;29;20431;-74
2020/12/08 01:39:37;;;;;;;3.13;1.60;;;;;;;6.50;76.60;98976.28;4918742;29;20092;-73
2020/12/08 01:42:06;;;;;;;3.13;1.48;;;;;;;6.42;76.95;98942.47;4918458;29;20115;-74
2020/12/08 01:44:37;;;;;;;5.60;1.98;;;;;;;6.47;76.27;98950.94;4919619;29;20048;-73
2020/12/08 01:47:06;;;;;;;4.03;1.85;;;;;;;6.32;76.76;98933.13;4918252;29;20044;-74
2020/12/08 01:49:34;;;;;;;2.85;1.65;;;;;;;6.43;76.57;98943.31;4918415;29;20047;-74
2020/12/08 01:52:02;;;;;;;3.20;1.42;;;;;;;6.41;76.70;98935.69;4902784;29;20066;-74
2020/12/08 01:54:30;;;;;;;4.03;1.92;;;;;;;5.88;76.53;98851.03;4918626;29;20051;-74
2020/12/08 01:56:59;;;;;;;2.90;1.50;;;;;;;6.48;76.60;98951.75;4919325;29;20141;-74
2020/12/08 01:59:28;;;;;;;3.63;1.60;;;;;;;5.94;76.88;98861.22;4918247;29;20495;-74
2020/12/08 02:02:09;;;;;;;2.88;1.60;;;;;;;6.44;76.57;98945.84;4950271;29;20056;-73
2020/12/08 02:04:37;;;;;;;4.38;1.80;;;;;;;6.42;76.49;98946.69;4918043;29;20402;-74
2020/12/08 02:07:06;;;;;;;4.05;2.20;;;;;;;6.37;76.47;98946.69;4902842;29;20063;-74
2020/12/08 02:09:36;;;;;;;4.25;2.10;;;;;;;6.14;76.94;98902.69;4919406;29;20513;-74
2020/12/08 02:12:05;;;;;;;3.60;1.88;;;;;;;6.21;76.32;98917.06;4918019;29;20044;-74
2020/12/08 02:14:39;;;;;;;3.15;1.77;;;;;;;6.43;76.86;98953.47;4919101;29;20131;-74
2020/12/08 02:17:07;;;;;;;4.70;2.03;;;;;;;6.42;76.74;98951.75;4919058;29;20406;-74
2020/12/08 02:19:35;;;;;;;3.30;1.80;;;;;;;6.23;76.73;98925.50;4917788;29;20127;-74
2020/12/08 02:22:08;;;;;;;2.78;1.88;;;;;;;6.08;76.55;98897.56;4917940;29;20545;-74
2020/12/08 02:24:37;;;;;;;3.17;1.63;;;;;;;6.14;76.80;98910.28;4932791;29;20075;-75
2020/12/08 02:27:06;;;;;;;3.55;2.08;;;;;;;6.41;76.81;98966.09;4917612;29;20135;-75
2020/12/08 02:29:34;;;;;;;3.63;1.90;;;;;;;6.38;76.67;98966.09;4918042;29;20103;-75
2020/12/08 02:32:02;;;;;;;3.55;1.85;;;;;;;5.63;76.73;98839.09;4949412;28;20105;-75
2020/12/08 02:34:30;;;;;;;3.35;1.83;;;;;;;6.05;77.01;98911.06;4917460;29;20044;-74
2020/12/08 02:36:58;;;;;;;3.30;1.90;;;;;;;6.39;77.15;98962.72;4917569;29;20036;-75
2020/12/08 02:39:38;;;;;;;3.50;1.80;;;;;;;6.44;77.07;98971.19;4917569;29;20075;-74
2020/12/08 02:42:06;;;;;;;3.47;1.60;;;;;;;6.35;76.71;98945.81;4917438;29;20131;-75
2020/12/08 02:44:34;;;;;;;3.25;2.10;;;;;;;6.48;76.83;98965.28;4917291;29;20044;-74
2020/12/08 02:47:02;;;;;;;4.15;2.22;;;;;;;6.12;77.01;98914.47;4917307;29;20044;-74
2020/12/08 02:49:33;;;;;;;4.15;2.30;;;;;;;6.35;77.11;98950.91;4917643;29;20068;-74
2020/12/08 02:52:01;;;;;;;4.72;2.60;;;;;;;6.35;77.09;98948.34;4917209;29;20134;-73
2020/12/08 02:54:35;;;;;;;4.65;2.35;;;;;;;6.47;76.96;98966.16;4917638;29;20107;-74
2020/12/08 02:57:07;;;;;;;5.13;2.55;;;;;;;6.42;77.20;98962.75;4917168;29;20084;-74
2020/12/08 02:59:38;;;;;;;3.92;2.40;;;;;;;6.34;77.61;98961.84;4917231;29;20072;-74
2020/12/08 03:02:10;;;;;;;5.07;2.38;;;;;;;6.35;77.97;98966.09;4917338;29;20056;-74
2020/12/08 03:04:46;;;;;;;5.00;2.38;;;;;;;6.36;77.79;98970.31;4917069;29;20059;-75
2020/12/08 03:07:18;;;;;;;4.03;2.08;;;;;;;6.41;77.87;98966.09;4948627;29;20044;-74
2020/12/08 03:09:47;;;;;;;3.60;2.05;;;;;;;6.42;77.42;98966.97;4917015;29;20044;-74
2020/12/08 03:12:16;;;;;;;4.60;2.55;;;;;;;5.95;77.62;98898.38;4916774;29;20040;-74
2020/12/08 03:14:48;;;;;;;4.63;2.55;;;;;;;6.37;77.71;98984.69;4916983;29;20095;-75
2020/12/08 03:17:27;;;;;;;4.93;2.47;;;;;;;6.27;78.02;98982.94;4916816;29;20048;-74
2020/12/08 03:19:55;;;;;;;4.15;2.67;;;;;;;6.14;77.68;98955.88;4948485;29;20045;-75
2020/12/08 03:22:24;;;;;;;6.25;2.60;;;;;;;6.36;78.04;98988.03;4901111;29;20056;-74
2020/12/08 03:24:55;;;;;;;4.70;2.30;;;;;;;6.38;78.29;99001.56;4916537;29;20095;-74
2020/12/08 03:27:26;;;;;;;3.28;1.98;;;;;;;6.40;78.25;98997.38;4916775;29;20066;-74
2020/12/08 03:29:59;;;;;;;4.40;2.20;;;;;;;6.39;78.37;98993.13;4916685;29;20044;-75
2020/12/08 03:32:30;;;;;;;4.75;2.53;;;;;;;6.42;78.29;98984.69;4948325;29;20529;-75
2020/12/08 03:34:58;;;;;;;4.72;2.30;;;;;;;6.40;78.62;98974.56;4900765;29;20123;-74
2020/12/08 03:37:26;;;;;;;3.88;2.47;;;;;;;6.38;78.26;98976.22;4916436;29;20040;-74
2020/12/08 03:40:00;;;;;;;6.25;3.47;;;;;;;6.30;79.01;98977.91;4916457;29;20052;-73
2020/12/08 03:42:32;;;;;;;6.13;2.83;;;;;;;6.29;78.51;98963.53;4916522;29;20139;-75
2020/12/08 03:45:02;;;;;;;4.40;2.45;;;;;;;6.02;78.73;98930.47;4900677;29;20048;-74
2020/12/08 03:47:40;;;;;;;4.22;2.53;;;;;;;6.20;79.06;98966.03;4916466;29;20056;-75
2020/12/08 03:50:10;;;;;;;4.28;2.53;;;;;;;5.85;78.79;98916.88;4916280;29;20048;-74
2020/12/08 03:52:41;;;;;;;5.07;2.78;;;;;;;5.97;78.99;98947.31;4916416;29;20502;-74
2020/12/08 03:55:10;;;;;;;5.03;2.83;;;;;;;5.97;79.37;98958.28;4916244;29;20052;-74
2020/12/08 03:57:39;;;;;;;4.53;2.85;;;;;;;6.08;79.26;98959.22;4916283;29;20378;-75
2020/12/08 04:00:11;;;;;;;4.95;3.00;;;;;;;5.98;79.11;98971.78;4916300;29;20417;-74
2020/12/08 04:02:48;;;;;;;4.38;2.58;;;;;;;5.72;79.50;98932.78;4900654;29;20055;-74
2020/12/08 04:05:21;;;;;;;4.95;2.80;;;;;;;5.92;79.33;98974.31;4916446;29;20518;-74
2020/12/08 04:07:48;;;;;;;4.55;2.50;;;;;;;5.88;79.15;98977.63;4916236;29;20040;-74
2020/12/08 04:10:19;;;;;;;5.05;2.72;;;;;;;5.32;79.20;98914.81;4900222;29;20052;-75
2020/12/08 04:12:49;;;;;;;4.05;2.22;;;;;;;5.15;79.27;98911.28;4916239;29;20071;-75
2020/12/08 04:15:18;;;;;;;3.42;2.10;;;;;;;5.64;79.57;98987.59;4916151;29;20044;-75
2020/12/08 04:17:46;;;;;;;5.32;2.35;;;;;;;5.64;79.39;98982.53;4916046;29;20075;-75
2020/12/08 04:20:15;;;;;;;5.07;2.30;;;;;;;5.52;79.38;98982.44;4900544;29;20036;-75
2020/12/08 04:22:42;;;;;;;4.32;2.47;;;;;;;5.49;79.90;98979.88;4915952;29;20050;-74
2020/12/08 04:25:14;;;;;;;3.90;2.45;;;;;;;5.33;79.46;98976.34;4915792;29;20048;-74
2020/12/08 04:27:44;;;;;;;4.22;2.60;;;;;;;5.40;79.96;98993.28;4915978;29;20537;-75
2020/12/08 04:30:12;;;;;;;5.20;2.60;;;;;;;5.39;79.90;98982.31;4916003;29;20125;-75
2020/12/08 04:32:44;;;;;;;3.92;2.40;;;;;;;5.64;80.05;98990.94;4915919;29;20040;-75
2020/12/08 04:35:13;;;;;;;4.57;2.73;;;;;;;5.65;79.65;98969.00;4915958;29;20514;-75
2020/12/08 04:37:41;;;;;;;4.07;2.35;;;;;;;5.84;79.75;98991.09;4916962;29;20052;-75
2020/12/08 04:40:09;;;;;;;5.03;2.75;;;;;;;5.84;79.36;98997.03;4916078;29;20044;-75
2020/12/08 04:42:44;;;;;;;4.45;2.45;;;;;;;5.50;79.46;98923.34;4916966;29;20123;-75
2020/12/08 04:45:15;;;;;;;4.40;2.30;;;;;;;5.46;78.90;98922.50;4917055;29;20051;-75
2020/12/08 04:47:43;;;;;;;2.47;1.67;;;;;;;5.47;79.25;98930.94;4915948;29;20048;-75
2020/12/08 04:50:11;;;;;;;6.88;2.70;;;;;;;5.72;79.29;98975.81;4919659;29;20055;-76
2020/12/08 04:52:39;;;;;;;4.63;2.50;;;;;;;5.87;79.12;98991.16;4919514;29;20103;-73
2020/12/08 04:55:07;;;;;;;3.83;2.30;;;;;;;5.73;79.02;98977.53;4920546;29;20095;-73
2020/12/08 04:57:34;;;;;;;4.93;2.70;;;;;;;5.86;78.95;98991.97;4920513;29;20135;-73
2020/12/08 05:00:05;;;;;;;4.90;2.40;;;;;;;5.88;78.90;99002.94;4920677;29;20063;-73
2020/12/08 05:02:45;;;;;;;5.45;2.65;;;;;;;5.58;79.10;98949.56;4920445;29;20080;-73
2020/12/08 05:05:13;;;;;;;4.47;2.55;;;;;;;5.64;78.88;98959.75;4920341;29;20487;-74
2020/12/08 05:07:41;;;;;;;11.70;4.95;;;;;;;5.62;79.19;98963.91;4920263;29;20078;-74
2020/12/08 05:10:09;;;;;;;7.43;4.13;;;;;;;5.46;79.27;98952.00;4903570;29;20040;-74
2020/12/08 05:12:37;;;;;;;5.85;3.40;;;;;;;5.82;79.41;99007.97;4920256;29;20474;-73
2020/12/08 05:15:05;;;;;;;5.10;2.97;;;;;;;5.71;79.25;99009.56;4920174;29;20044;-73
2020/12/08 05:17:34;;;;;;;5.65;3.33;;;;;;;5.73;79.37;99007.91;4920090;29;20518;-74
2020/12/08 05:20:03;;;;;;;7.63;3.85;;;;;;;5.14;78.80;98908.72;4920007;29;20044;-74
2020/12/08 05:22:32;;;;;;;5.70;3.60;;;;;;;5.08;79.14;98894.38;4920390;29;20047;-74
2020/12/08 05:25:10;;;;;;;8.85;4.57;;;;;;;5.74;79.26;99017.16;4919671;29;20098;-74
2020/12/08 05:27:38;;;;;;;32.40;12.52;;;;;;;5.79;79.19;99023.13;4920052;29;20055;-74
2020/12/08 05:30:06;;;;;;;39.35;16.52;;;;;;;5.78;78.94;99026.50;4918848;29;20044;-75
2020/12/08 05:32:38;;;;;;;44.08;18.38;;;;;;;5.61;78.98;99000.22;4918758;29;20079;-75
2020/12/08 05:35:07;;;;;;;19.60;9.48;;;;;;;5.76;79.03;99018.06;4918843;29;20080;-76
2020/12/08 05:37:36;;;;;;;11.52;6.25;;;;;;;5.16;79.38;98928.16;4950152;29;20044;-76
2020/12/08 05:40:08;;;;;;;5.35;3.03;;;;;;;5.77;79.02;99029.84;4919708;29;20048;-76
2020/12/08 05:42:37;;;;;;;3.92;2.58;;;;;;;5.80;78.71;99017.22;4919645;29;20133;-74
2020/12/08 05:45:07;;;;;;;4.97;2.80;;;;;;;5.84;78.68;99012.22;4919573;29;20076;-74
2020/12/08 05:47:41;;;;;;;;;;;;;;;5.85;78.12;99016.47;4919974;29;20072;-74
2020/12/08 05:50:09;;;;;;;4.07;2.47;;;;;;;5.83;78.20;99022.31;4919586;29;20022;-75
2020/12/08 05:52:39;;;;;;;4.00;2.47;;;;;;;5.77;78.15;99014.66;4919463;29;20606;-74
2020/12/08 05:55:08;;;;;;;3.67;2.05;;;;;;;5.39;78.34;98944.38;4919846;29;20384;-74
2020/12/08 05:57:36;;;;;;;4.72;2.15;;;;;;;5.78;78.36;99016.38;4919349;29;20044;-74
2020/12/08 06:00:06;;;;;;;4.57;2.35;;;;;;;4.04;78.26;98740.16;4918300;29;20054;-74
2020/12/08 06:02:39;;;;;;;4.22;2.22;;;;;;;5.78;78.34;99021.44;4919438;29;20067;-76
2020/12/08 06:05:08;;;;;;;3.90;2.05;;;;;;;5.29;78.35;98931.63;4887523;29;20490;-76
2020/12/08 06:07:36;;;;;;;5.35;2.75;;;;;;;5.61;78.25;98988.41;4919202;29;20044;-76
2020/12/08 06:10:09;;;;;;;5.18;3.70;;;;;;;5.34;78.60;98948.56;4919273;29;20048;-76
2020/12/08 06:12:37;;;;;;;5.55;3.40;;;;;;;5.78;78.68;99029.03;4918345;29;20148;-74
2020/12/08 06:15:17;;;;;;;4.28;2.65;;;;;;;5.81;79.18;99031.56;4919324;29;20074;-75
2020/12/08 06:17:46;;;;;;;3.50;2.30;;;;;;;5.76;79.09;99029.00;4919045;29;20052;-74
2020/12/08 06:20:15;;;;;;;4.68;2.20;;;;;;;5.55;78.20;98997.63;4917874;29;20090;-75
2020/12/08 06:22:53;;;;;;;3.90;2.10;;;;;;;5.12;78.54;98926.44;4918920;29;20056;-75
2020/12/08 06:25:23;;;;;;;3.53;2.10;;;;;;;5.62;79.09;99006.94;4919024;29;20054;-76
2020/12/08 06:27:51;;;;;;;3.95;2.25;;;;;;;5.87;78.51;99047.72;4919037;29;20052;-76
2020/12/08 06:30:22;;;;;;;4.70;2.80;;;;;;;5.77;78.44;99019.72;4918795;29;20048;-76
2020/12/08 06:32:50;;;;;;;4.18;2.33;;;;;;;5.86;78.36;99032.47;4918815;29;20112;-75
2020/12/08 06:35:19;;;;;;;4.97;2.40;;;;;;;5.80;78.90;99015.56;4917783;29;20083;-75
2020/12/08 06:37:49;;;;;;;3.95;2.38;;;;;;;5.49;78.66;98987.47;4917633;29;20040;-74
2020/12/08 06:40:18;;;;;;;6.88;4.10;;;;;;;5.79;78.78;99034.09;4901873;29;20048;-74
2020/12/08 06:42:46;;;;;;;8.17;4.80;;;;;;;5.79;78.93;99035.78;4918691;29;20044;-74
2020/12/08 06:45:17;;;;;;;6.30;2.25;;;;;;;5.33;78.35;98967.06;4902017;29;20491;-74
2020/12/08 06:47:45;;;;;;;3.75;1.92;;;;;;;5.74;78.51;99045.00;4918581;29;20079;-74
2020/12/08 06:50:26;;;;;;;2.35;1.42;;;;;;;5.72;78.84;99046.69;4918368;29;20076;-74
2020/12/08 06:52:55;;;;;;;4.47;2.53;;;;;;;5.73;78.63;99038.28;4918480;29;20075;-74
2020/12/08 06:55:22;;;;;;;4.88;2.85;;;;;;;5.76;78.61;99039.13;4917157;29;20111;-74
2020/12/08 06:57:50;;;;;;;4.88;2.20;;;;;;;5.30;78.13;98981.41;4917182;29;20092;-73
2020/12/08 07:00:19;;;;;;;3.50;1.70;;;;;;;5.84;77.91;99061.97;4918525;29;20060;-76
2020/12/08 07:02:50;;;;;;;3.47;1.92;;;;;;;5.85;77.66;99043.47;4918286;29;20064;-75
2020/12/08 07:05:19;;;;;;;6.50;3.22;;;;;;;5.77;77.60;99033.25;4917091;29;20052;-74
2020/12/08 07:07:48;;;;;;;4.05;2.25;;;;;;;5.60;77.27;98995.97;4901208;29;20044;-74
2020/12/08 07:10:18;;;;;;;4.97;2.85;;;;;;;5.98;77.28;99041.03;4917061;29;20055;-74
2020/12/08 07:12:48;;;;;;;3.92;1.98;;;;;;;5.48;76.65;98981.53;4917764;29;20044;-74
2020/12/08 07:15:16;;;;;;;3.15;1.70;;;;;;;5.50;76.97;98984.94;4916949;29;20071;-74
2020/12/08 07:17:44;;;;;;;3.75;1.98;;;;;;;5.96;77.03;99067.19;4917938;29;20499;-73
2020/12/08 07:20:12;;;;;;;3.75;1.70;;;;;;;6.00;76.64;99063.81;4917017;29;20039;-73
2020/12/08 07:22:43;;;;;;;2.75;1.48;;;;;;;5.81;76.61;99029.03;4916677;29;20585;-74
2020/12/08 07:25:13;;;;;;;4.38;2.20;;;;;;;5.87;76.78;99022.38;4917744;29;20079;-73
2020/12/08 07:27:42;;;;;;;3.15;1.60;;;;;;;6.14;76.46;99072.41;4916603;29;20051;-74
2020/12/08 07:30:10;;;;;;;3.22;1.63;;;;;;;5.90;76.19;99031.69;4916641;29;20060;-75
2020/12/08 07:32:38;;;;;;;3.75;1.80;;;;;;;6.14;75.80;99062.25;4917599;29;20503;-74
2020/12/08 07:35:18;;;;;;;4.18;2.08;;;;;;;5.56;75.49;98976.53;4917790;29;20107;-75
2020/12/08 07:37:47;;;;;;;5.40;1.70;;;;;;;5.94;75.67;99043.53;4917750;29;20048;-74
2020/12/08 07:40:15;;;;;;;3.47;1.42;;;;;;;6.20;75.26;99077.47;4916491;29;20039;-74
2020/12/08 07:42:48;;;;;;;2.85;1.50;;;;;;;6.19;75.33;99077.50;4918168;29;20048;-74
2020/12/08 07:45:17;;;;;;;3.25;1.48;;;;;;;6.14;75.60;99081.66;4917515;29;20049;-74
2020/12/08 07:47:45;;;;;;;3.15;1.60;;;;;;;5.92;76.12;99060.41;4917857;29;20048;-74
2020/12/08 07:50:21;;;;;;;2.33;1.43;;;;;;;6.09;75.81;99082.47;4916330;29;20048;-74
2020/12/08 07:52:59;;;;;;;2.08;1.15;;;;;;;6.00;76.03;99058.75;4911400;29;20072;-74
2020/12/08 07:55:31;;;;;;;4.43;1.42;;;;;;;6.15;75.55;99084.19;4917299;29;20056;-76
2020/12/08 07:57:59;;;;;;;5.65;2.15;;;;;;;6.14;75.66;99089.28;4915827;29;20108;-75
2020/12/08 08:00:27;;;;;;;6.95;2.70;;;;;;;6.21;75.94;99091.84;4917204;29;20048;-76
2020/12/08 08:02:55;;;;;;;7.20;3.05;;;;;;;6.28;75.55;99098.66;4917451;29;20451;-76
2020/12/08 08:05:26;;;;;;;4.47;2.00;;;;;;;6.19;75.80;99064.81;4916151;29;20051;-75
2020/12/08 08:07:54;;;;;;;3.10;1.45;;;;;;;6.38;75.03;99091.97;4916156;29;20075;-77
2020/12/08 08:10:22;;;;;;;3.33;1.70;;;;;;;6.34;74.25;99088.56;4915992;29;20045;-75
2020/12/08 08:12:50;;;;;;;4.10;2.20;;;;;;;6.26;74.70;99087.69;4916139;29;20052;-76
2020/12/08 08:15:19;;;;;;;;;;;;;;;6.36;74.65;99094.47;4917577;29;20059;-73
2020/12/08 08:17:47;;;;;;;8.05;3.08;;;;;;;6.39;74.86;99102.09;4917187;29;19927;-76
2020/12/08 08:20:16;;;;;;;4.22;2.15;;;;;;;6.45;74.48;99099.63;4916010;29;20498;-74
2020/12/08 08:22:44;;;;;;;2.70;1.48;;;;;;;6.43;74.51;99098.75;4917099;29;20096;-76
2020/12/08 08:25:12;;;;;;;4.50;1.90;;;;;;;6.45;74.77;99109.75;4920657;29;20402;-76
2020/12/08 08:27:40;;;;;;;6.20;1.88;;;;;;;6.50;74.48;99105.53;4921005;29;20048;-76
2020/12/08 08:30:10;;;;;;;3.10;1.88;;;;;;;6.38;73.93;99095.31;4919899;29;20130;-76
2020/12/08 08:32:37;;;;;;;3.13;1.70;;;;;;;6.54;73.96;99112.34;4920349;29;20104;-75
2020/12/08 08:35:07;;;;;;;3.25;1.70;;;;;;;6.52;73.96;99111.50;4920723;29;20139;-75
2020/12/08 08:37:35;;;;;;;4.60;2.38;;;;;;;6.38;74.21;99102.94;4903998;29;20131;-75
2020/12/08 08:40:03;;;;;;;3.67;1.85;;;;;;;6.23;74.12;99069.91;4920773;29;20407;-74
2020/12/08 08:42:31;;;;;;;4.35;1.80;;;;;;;6.47;74.24;99120.75;4919695;29;20052;-75
2020/12/08 08:45:01;;;;;;;5.50;2.50;;;;;;;6.56;74.19;99133.47;4921037;29;20044;-75
2020/12/08 08:47:31;;;;;;;3.58;1.75;;;;;;;6.70;74.02;99131.88;4919747;29;20054;-76
2020/12/08 08:50:01;;;;;;;2.60;1.40;;;;;;;6.88;72.98;99130.28;4951262;29;20075;-77
2020/12/08 08:52:30;;;;;;;5.05;2.10;;;;;;;6.85;73.67;99130.25;4920556;29;20048;-76
2020/12/08 08:54:58;;;;;;;3.55;1.60;;;;;;;6.17;73.45;99025.97;4920566;29;20189;-75
2020/12/08 08:57:26;;;;;;;6.60;1.60;;;;;;;6.12;73.18;99040.28;4920378;29;20040;-76
2020/12/08 08:59:54;;;;;;;5.43;2.00;;;;;;;6.59;73.42;99128.44;4920447;29;20048;-76
2020/12/08 09:02:22;;;;;;;3.70;2.08;;;;;;;6.63;73.45;99125.06;4920441;29;20055;-75
2020/12/08 09:04:56;;;;;;;3.60;2.15;;;;;;;5.95;74.40;99012.31;4920318;29;20466;-75
2020/12/08 09:07:25;;;;;;;4.20;2.20;;;;;;;6.69;74.43;99132.69;4919198;29;20092;-76
2020/12/08 09:09:53;;;;;;;3.55;1.80;;;;;;;6.67;74.12;99129.31;4949909;28;20092;-75
2020/12/08 09:12:21;;;;;;;4.38;2.13;;;;;;;6.63;73.84;99129.28;4920223;29;20063;-75
2020/12/08 09:14:54;;;;;;;7.35;1.75;;;;;;;6.57;74.17;99130.13;4920244;29;20048;-75
2020/12/08 09:17:22;;;;;;;4.72;2.42;;;;;;;6.61;74.24;99136.91;4920270;29;20127;-75
2020/12/08 09:19:50;;;;;;;3.67;2.40;;;;;;;6.59;74.13;99112.38;4920041;29;20044;-75
2020/12/08 09:22:22;;;;;;;5.32;2.60;;;;;;;6.84;74.14;99133.66;4919053;29;20048;-76
2020/12/08 09:24:54;;;;;;;5.68;2.55;;;;;;;6.86;73.68;99137.03;4919501;29;20447;-75
2020/12/08 09:27:22;;;;;;;4.80;2.78;;;;;;;6.38;73.04;99061.56;4918772;29;20044;-76
2020/12/08 09:29:50;;;;;;;4.47;2.05;;;;;;;6.81;73.13;99141.22;4918676;29;20126;-75
2020/12/08 09:32:19;;;;;;;3.47;2.10;;;;;;;6.72;72.83;99140.34;4919786;29;20052;-76
2020/12/08 09:34:47;;;;;;;4.07;2.28;;;;;;;6.12;73.45;99027.63;4919635;29;20136;-75
2020/12/08 09:37:15;;;;;;;3.33;1.95;;;;;;;6.77;73.16;99137.00;4919700;29;20132;-75
2020/12/08 09:39:44;;;;;;;3.30;1.83;;;;;;;6.80;73.24;99137.00;4919671;29;20048;-75
2020/12/08 09:42:13;;;;;;;3.00;1.70;;;;;;;6.50;73.30;99077.66;4919649;29;20084;-75
2020/12/08 09:44:42;;;;;;;3.60;2.10;;;;;;;6.75;73.00;99134.44;4918259;29;20517;-77
2020/12/08 09:47:11;;;;;;;3.35;2.00;;;;;;;6.76;73.35;99136.13;4918477;29;20107;-76
2020/12/08 09:49:40;;;;;;;4.60;2.33;;;;;;;6.77;73.47;99131.94;4919470;29;20048;-76
2020/12/08 09:52:11;;;;;;;4.20;2.38;;;;;;;6.81;73.15;99133.63;4919466;29;20056;-75
2020/12/08 09:54:39;;;;;;;5.80;2.60;;;;;;;6.67;72.94;99095.53;4918094;29;20471;-75
2020/12/08 09:57:08;;;;;;;3.83;2.30;;;;;;;6.52;73.09;99080.22;4918364;29;20055;-76
2020/12/08 09:59:36;;;;;;;4.55;2.10;;;;;;;6.83;72.67;99131.94;4950057;28;20099;-77
2020/12/08 10:02:05;;;;;;;4.25;2.28;;;;;;;6.51;72.29;99074.31;4919338;29;20040;-76
2020/12/08 10:04:33;;;;;;;4.47;2.00;;;;;;;6.78;71.85;99128.53;4918002;29;20085;-76
2020/12/08 10:07:01;;;;;;;4.28;2.28;;;;;;;5.24;71.97;98881.00;4919078;29;20059;-76
2020/12/08 10:09:29;;;;;;;4.97;2.05;;;;;;;6.77;72.28;99126.84;4917823;29;20122;-75
2020/12/08 10:11:58;;;;;;;3.47;2.03;;;;;;;6.77;72.12;99121.78;4917433;29;20071;-75
2020/12/08 10:14:27;;;;;;;3.88;2.30;;;;;;;6.73;72.55;99126.81;4902089;29;20044;-76
2020/12/08 10:16:59;;;;;;;4.72;2.63;;;;;;;6.79;72.47;99137.84;4919225;29;20495;-75
2020/12/08 10:19:27;;;;;;;5.80;2.72;;;;;;;6.84;72.49;99137.00;4918924;29;20048;-75
2020/12/08 10:22:20;;;;;;;5.22;2.80;;;;;;;6.93;72.55;99133.69;4943224;29;20414;-74
2020/12/08 10:24:52;;;;;;;4.82;2.67;;;;;;;6.97;71.99;99141.31;4917334;29;20064;-76
2020/12/08 10:27:20;;;;;;;6.00;2.75;;;;;;;6.98;72.27;99142.16;4868682;29;20403;-75
2020/12/08 10:29:50;;;;;;;5.32;2.97;;;;;;;6.53;71.67;99080.22;4902614;29;20111;-76
2020/12/08 10:32:21;;;;;;;3.65;2.38;;;;;;;6.88;72.01;99123.53;4917205;29;20491;-75
2020/12/08 10:34:48;;;;;;;3.67;2.10;;;;;;;6.98;71.50;99142.16;4886967;29;20040;-75
2020/12/08 10:37:19;;;;;;;3.95;2.25;;;;;;;6.92;71.87;99142.97;4917499;29;20092;-75
2020/12/08 10:39:47;;;;;;;4.22;2.17;;;;;;;6.78;71.69;99113.31;4918887;29;20139;-74
2020/12/08 10:42:40;;;;;;;6.72;2.40;;;;;;;6.91;71.36;99140.44;4917714;29;20494;-75
2020/12/08 10:45:12;;;;;;;4.07;2.38;;;;;;;6.84;71.56;99123.50;4918584;29;20123;-75
2020/12/08 10:47:40;;;;;;;4.55;2.40;;;;;;;6.97;71.38;99135.38;4918036;29;20071;-75
2020/12/08 10:50:11;;;;;;;3.72;2.22;;;;;;;7.03;71.56;99136.25;4917763;29;20056;-75
2020/12/08 10:52:45;;;;;;;3.63;2.20;;;;;;;6.90;71.02;99124.38;4918540;29;20131;-75
2020/12/08 10:55:14;;;;;;;3.65;2.22;;;;;;;6.83;70.82;99116.72;4918395;29;20095;-75
2020/12/08 10:57:47;;;;;;;5.22;2.40;;;;;;;7.02;70.83;99128.66;4918322;29;20048;-75
2020/12/08 11:00:16;;;;;;;3.92;2.53;;;;;;;6.75;71.17;99068.50;4918247;29;20041;-75
2020/12/08 11:03:09;;;;;;;4.05;2.28;;;;;;;7.21;71.08;99125.34;4917338;29;20056;-76
2020/12/08 11:06:03;;;;;;;5.03;2.70;;;;;;;7.25;70.64;99121.97;4916944;29;20506;-75
2020/12/08 11:08:32;;;;;;;4.43;2.40;;;;;;;7.20;71.26;99111.81;4918043;29;20072;-75
2020/12/08 11:11:00;;;;;;;4.20;2.08;;;;;;;7.26;70.90;99123.69;4918011;29;20052;-75
2020/12/08 11:13:27;;;;;;;3.70;2.17;;;;;;;7.20;69.89;99118.56;4916876;29;20131;-76
2020/12/08 11:16:01;;;;;;;3.80;2.20;;;;;;;7.14;70.15;99104.19;4917995;29;20056;-76
2020/12/08 11:18:29;;;;;;;5.22;2.35;;;;;;;7.31;70.29;99116.94;4918066;29;20171;-77
2020/12/08 11:21:01;;;;;;;4.05;2.30;;;;;;;7.24;69.67;99105.06;4918021;29;20055;-75
2020/12/08 11:23:29;;;;;;;4.25;2.30;;;;;;;7.22;70.01;99089.00;4914867;29;20060;-76
2020/12/08 11:26:22;;;;;;;3.05;1.77;;;;;;;7.52;69.56;99122.06;4916606;29;20044;-75
2020/12/08 11:29:17;;;;;;;3.58;2.00;;;;;;;7.60;69.44;99135.63;4901043;29;20131;-76
2020/12/08 11:31:48;;;;;;;4.22;2.30;;;;;;;7.47;68.33;99105.97;4916607;29;20040;-75
2020/12/08 11:34:17;;;;;;;3.22;1.50;;;;;;;7.25;68.19;99087.28;4916873;29;20063;-75
2020/12/08 11:36:45;;;;;;;3.83;1.90;;;;;;;7.53;68.25;99122.91;4917703;29;20044;-75
2020/12/08 11:39:16;;;;;;;3.85;2.03;;;;;;;7.57;68.87;99127.13;4916662;29;20055;-75
2020/12/08 11:41:44;;;;;;;3.33;2.00;;;;;;;7.55;68.45;99127.16;4916897;29;20528;-76
2020/12/08 11:44:14;;;;;;;3.75;2.17;;;;;;;7.42;68.08;99094.94;4916357;29;20051;-75
2020/12/08 11:46:43;;;;;;;5.18;2.22;;;;;;;7.48;68.45;99089.91;4914880;29;20072;-76
2020/12/08 11:49:15;;;;;;;4.47;2.00;;;;;;;7.68;68.25;99103.47;4916592;29;20048;-76
2020/12/08 11:51:43;;;;;;;4.33;2.17;;;;;;;7.86;68.01;99118.72;4917425;29;20048;-76
2020/12/08 11:54:11;;;;;;;7.20;2.25;;;;;;;7.63;66.80;99025.59;4917299;29;20040;-76